createdAt,value
2022-12-14T00:02:01.176Z,100341.19
2022-12-14T00:05:01.180Z,100329.31
2022-12-14T00:08:01.184Z,100314.97
2022-12-14T00:11:01.167Z,100327.81
2022-12-14T00:14:01.166Z,100317.06
2022-12-14T00:17:01.181Z,100317.97
2022-12-14T00:20:01.152Z,100319.75
2022-12-14T00:23:02.182Z,100288.59
2022-12-14T00:26:02.139Z,100318.28
2022-12-14T00:29:04.181Z,100312.47
2022-12-14T00:32:04.153Z,100323.34
2022-12-14T00:35:04.145Z,100335.28
2022-12-14T00:38:04.186Z,100329.22
2022-12-14T00:41:04.146Z,100330.12
2022-12-14T00:44:04.128Z,100330.09
2022-12-14T00:46:57.189Z,100298.91
2022-12-14T00:49:57.174Z,100306.56
2022-12-14T00:52:57.190Z,100331.09
2022-12-14T00:55:58.166Z,100325.31
2022-12-14T00:59:04.144Z,100337.22
2022-12-14T01:02:04.266Z,100311.75
2022-12-14T01:05:04.171Z,100314.31
2022-12-14T01:08:04.158Z,100300.97
2022-12-14T01:11:04.180Z,100305.34
2022-12-14T01:14:04.168Z,100332.56
2022-12-14T01:17:04.191Z,100296.19
2022-12-14T01:20:04.146Z,100329.19
2022-12-14T01:23:08.130Z,100312.25
2022-12-14T01:26:12.134Z,100320.66
2022-12-14T01:29:13.175Z,100312.88
2022-12-14T01:32:13.143Z,100323.81
2022-12-14T01:35:13.146Z,100304.38
2022-12-14T01:38:13.135Z,100328.09
2022-12-14T01:41:14.172Z,100300.34
2022-12-14T01:44:21.160Z,100338.37
2022-12-14T01:47:47.175Z,100345.22
2022-12-14T01:50:53.152Z,100345.31
2022-12-14T01:53:53.134Z,100331.59
2022-12-14T01:56:55.169Z,100316.41
2022-12-14T02:00:01.009Z,100327.50
2022-12-14T02:03:15.187Z,100322.47
2022-12-14T02:06:19.166Z,100324.28
2022-12-14T02:09:22.178Z,100306.44
2022-12-14T02:12:30.143Z,100282.72
2022-12-14T02:15:30.144Z,100313.28
2022-12-14T02:18:36.162Z,100311.75
2022-12-14T02:21:43.163Z,100311.84
2022-12-14T02:25:11.167Z,100286.53
2022-12-14T02:28:48.158Z,100297.56
2022-12-14T02:32:00.154Z,100308.84
2022-12-14T02:35:12.171Z,100277.66
2022-12-14T02:38:22.118Z,100306.38
2022-12-14T02:41:25.137Z,100311.41
2022-12-14T02:44:31.181Z,100312.22
2022-12-14T02:47:41.166Z,100310.41
2022-12-14T02:50:52.168Z,100309.53
2022-12-14T02:54:18.114Z,100310.56
2022-12-14T02:57:27.173Z,100303.06
2022-12-14T03:00:27.169Z,100305.78
2022-12-14T03:03:27.473Z,100308.44
2022-12-14T03:06:35.126Z,100301.03
2022-12-14T03:09:35.183Z,100300.12
2022-12-14T03:12:35.213Z,100285.88
2022-12-14T03:15:36.197Z,100286.84
2022-12-14T03:18:37.117Z,100275.81
2022-12-14T03:21:50.175Z,100286.84
2022-12-14T03:24:57.142Z,100281.81
2022-12-14T03:28:05.139Z,100285.22
2022-12-14T03:31:10.169Z,100275.94
2022-12-14T03:34:13.030Z,100258.31
2022-12-14T03:37:27.128Z,100274.44
2022-12-14T03:40:28.183Z,100247.50
2022-12-14T03:43:49.687Z,100244.25
2022-12-14T03:47:10.143Z,100273.94
2022-12-14T03:50:20.124Z,100274.09
2022-12-14T03:53:24.430Z,100271.56
2022-12-14T03:56:42.164Z,100274.13
2022-12-14T03:59:51.159Z,100271.59
2022-12-14T04:02:56.233Z,100253.75
2022-12-14T04:06:00.172Z,100257.94
2022-12-14T04:09:10.105Z,100249.50
2022-12-14T04:12:51.191Z,100273.16
2022-12-14T04:16:10.129Z,100252.78
2022-12-14T04:19:13.173Z,100258.78
2022-12-14T04:22:16.120Z,100262.88
2022-12-14T04:25:37.136Z,100255.22
2022-12-14T04:28:57.152Z,100261.25
2022-12-14T04:32:02.228Z,100254.41
2022-12-14T04:35:06.112Z,100233.16
2022-12-14T04:38:13.107Z,100248.38
2022-12-14T04:41:16.146Z,100235.59
2022-12-14T04:44:38.142Z,100216.09
2022-12-14T04:47:44.143Z,100224.47
2022-12-14T04:50:47.151Z,100211.62
2022-12-14T04:53:48.138Z,100208.22
2022-12-14T04:56:53.100Z,100211.53
2022-12-14T04:59:53.155Z,100210.69
2022-12-14T05:03:03.137Z,100218.53
2022-12-14T05:06:22.126Z,100214.34
2022-12-14T05:09:27.107Z,100218.50
2022-12-14T05:12:34.125Z,100200.59
2022-12-14T05:15:40.103Z,100201.34
2022-12-14T05:18:40.160Z,100174.28
2022-12-14T05:21:55.148Z,100188.69
2022-12-14T05:24:55.133Z,100214.91
2022-12-14T05:27:55.145Z,100198.06
2022-12-14T05:30:55.196Z,100207.94
2022-12-14T05:33:55.139Z,100200.31
2022-12-14T05:36:55.143Z,100198.59
2022-12-14T05:39:55.110Z,100175.69
2022-12-14T05:42:56.216Z,100167.06
2022-12-14T05:45:56.171Z,100184.69
2022-12-14T05:48:56.153Z,100182.94
2022-12-14T05:51:56.157Z,100168.38
2022-12-14T05:55:00.853Z,100146.44
2022-12-14T05:58:03.137Z,100161.53
2022-12-14T06:01:03.102Z,100145.47
2022-12-14T06:04:05.177Z,100158.09
2022-12-14T06:07:05.094Z,100138.63
2022-12-14T06:10:05.133Z,100152.19
2022-12-14T06:13:05.096Z,100142.81
2022-12-14T06:16:05.136Z,100132.59
2022-12-14T06:19:07.135Z,100136.84
2022-12-14T06:22:08.135Z,100103.69
2022-12-14T06:25:08.114Z,100137.59
2022-12-14T06:28:08.114Z,100151.34
2022-12-14T06:31:08.217Z,100176.66
2022-12-14T06:34:09.120Z,100154.63
2022-12-14T06:37:10.919Z,100162.19
2022-12-14T06:40:11.174Z,100173.91
2022-12-14T06:43:11.159Z,100167.75
2022-12-14T06:46:15.076Z,100171.22
2022-12-14T06:49:15.439Z,100177.13
2022-12-14T06:52:15.139Z,100178.00
2022-12-14T06:55:15.113Z,100177.72
2022-12-14T06:58:15.359Z,100175.22
2022-12-14T07:01:17.264Z,100164.06
2022-12-14T07:04:17.280Z,100155.59
2022-12-14T07:07:19.103Z,100151.12
2022-12-14T07:10:19.183Z,100139.00
2022-12-14T07:13:19.125Z,100122.31
2022-12-14T07:16:20.282Z,100140.88
2022-12-14T07:19:20.111Z,100118.75
2022-12-14T07:22:20.364Z,100117.59
2022-12-14T07:25:20.129Z,100101.19
2022-12-14T07:28:21.150Z,100108.81
2022-12-14T07:31:26.243Z,100101.91
2022-12-14T07:34:26.107Z,100105.22
2022-12-14T07:37:27.119Z,100106.75
2022-12-14T07:40:27.098Z,100104.72
2022-12-14T07:43:28.473Z,100099.31
2022-12-14T07:46:30.180Z,100107.00
2022-12-14T07:49:30.107Z,100114.63
2022-12-14T07:52:35.697Z,100109.16
2022-12-14T07:55:37.125Z,100119.56
2022-12-14T07:58:39.132Z,100086.34
2022-12-14T08:01:47.198Z,100124.94
2022-12-14T08:04:48.156Z,100119.59
2022-12-14T08:07:48.152Z,100135.66
2022-12-14T08:10:48.099Z,100117.88
2022-12-14T08:13:50.105Z,100115.03
2022-12-14T08:16:50.147Z,100118.25
2022-12-14T08:19:50.081Z,100106.06
2022-12-14T08:22:50.120Z,100102.53
2022-12-14T08:25:50.108Z,100075.44
2022-12-14T08:28:50.105Z,100089.16
2022-12-14T08:31:51.203Z,100093.22
2022-12-14T08:34:51.101Z,100097.34
2022-12-14T08:37:51.103Z,100111.81
2022-12-14T08:40:52.134Z,100079.59
2022-12-14T08:43:52.121Z,100109.84
2022-12-14T08:46:52.121Z,100118.47
2022-12-14T08:49:52.122Z,100096.62
2022-12-14T08:52:56.330Z,100119.22
2022-12-14T08:56:03.837Z,100107.69
2022-12-14T08:59:06.139Z,100100.16
2022-12-14T09:02:08.350Z,100100.81
2022-12-14T09:05:10.234Z,100091.19
2022-12-14T09:08:12.568Z,100081.09
2022-12-14T09:11:12.167Z,100079.59
2022-12-14T09:14:12.184Z,100086.34
2022-12-14T09:17:12.165Z,100072.97
2022-12-14T09:20:14.152Z,100058.09
2022-12-14T09:23:14.096Z,100069.66
2022-12-14T09:26:24.241Z,100059.06
2022-12-14T09:29:30.118Z,100061.44
2022-12-14T09:32:31.082Z,100042.91
2022-12-14T09:35:33.091Z,100072.75
2022-12-14T09:38:33.089Z,100052.25
2022-12-14T09:42:16.099Z,100033.47
2022-12-14T09:45:30.161Z,100041.38
2022-12-14T09:48:36.435Z,100045.13
2022-12-14T09:51:39.280Z,100018.69
2022-12-14T09:54:42.072Z,99965.47
2022-12-14T09:57:52.135Z,100022.94
2022-12-14T10:00:57.008Z,100021.16
2022-12-14T10:04:31.229Z,99971.94
2022-12-14T10:07:43.169Z,100003.63
2022-12-14T10:11:18.134Z,100012.53
2022-12-14T10:14:44.303Z,100020.34
2022-12-14T10:17:50.090Z,100024.25
2022-12-14T10:21:15.128Z,100022.53
2022-12-14T10:24:17.142Z,99997.16
2022-12-14T10:27:18.134Z,100011.44
2022-12-14T10:30:30.097Z,99996.41
2022-12-14T10:33:40.109Z,99991.34
2022-12-14T10:36:44.098Z,99995.00
2022-12-14T10:40:13.789Z,99986.97
2022-12-14T10:43:35.124Z,99985.87
2022-12-14T10:46:54.127Z,99993.09
2022-12-14T10:50:09.084Z,99994.59
2022-12-14T10:53:09.111Z,99959.88
2022-12-14T10:56:18.235Z,99980.97
2022-12-14T10:59:39.644Z,99947.47
2022-12-14T11:02:54.293Z,99971.69
2022-12-14T11:06:03.103Z,99954.28
2022-12-14T11:09:04.078Z,99956.25
2022-12-14T11:12:16.164Z,99960.44
2022-12-14T11:15:19.109Z,99934.19
2022-12-14T11:18:31.965Z,99943.78
2022-12-14T11:21:32.099Z,99918.34
2022-12-14T11:24:42.083Z,99926.25
2022-12-14T11:27:42.174Z,99916.50
2022-12-14T11:30:42.164Z,99892.16
2022-12-14T11:33:59.063Z,99907.44
2022-12-14T11:36:59.092Z,99914.78
2022-12-14T11:40:03.108Z,99923.84
2022-12-14T11:43:04.247Z,99908.53
2022-12-14T11:46:05.158Z,99920.88
2022-12-14T11:49:05.130Z,99903.75
2022-12-14T11:52:12.108Z,99902.41
2022-12-14T11:55:15.065Z,99908.87
2022-12-14T11:58:15.089Z,99910.69
2022-12-14T12:01:19.238Z,99870.84
2022-12-14T12:04:26.105Z,99893.13
2022-12-14T12:07:45.121Z,99886.28
2022-12-14T12:11:01.803Z,99893.13
2022-12-14T12:14:05.068Z,99871.41
2022-12-14T12:17:06.098Z,99875.19
2022-12-14T12:20:06.104Z,99875.88
2022-12-14T12:23:10.112Z,99855.34
2022-12-14T12:26:10.093Z,99866.22
2022-12-14T12:29:18.066Z,99873.06
2022-12-14T12:32:24.056Z,99883.81
2022-12-14T12:35:33.142Z,99889.75
2022-12-14T12:38:51.076Z,99887.91
2022-12-14T12:41:55.819Z,99883.59
2022-12-14T12:45:04.046Z,99879.37
2022-12-14T12:48:08.095Z,99877.38
2022-12-14T12:51:15.066Z,99891.75
2022-12-14T12:54:19.093Z,99873.25
2022-12-14T12:57:21.105Z,99864.13
2022-12-14T13:00:22.104Z,99871.75
2022-12-14T13:03:47.129Z,99847.31
2022-12-14T13:06:49.117Z,99871.37
2022-12-14T13:09:54.073Z,99869.75
2022-12-14T13:13:00.092Z,99858.38
2022-12-14T13:16:12.129Z,99856.84
2022-12-14T13:22:41.102Z,99850.28
2022-12-14T13:25:44.079Z,99857.19
2022-12-14T13:28:59.056Z,99823.38
2022-12-14T13:32:12.153Z,99843.63
2022-12-14T13:35:40.072Z,99835.97
2022-12-14T13:39:05.097Z,99840.31
2022-12-14T13:42:13.089Z,99829.19
2022-12-14T13:45:07.113Z,99826.06
2022-12-14T13:47:48.707Z,99814.78
2022-12-14T13:50:57.411Z,99819.13
2022-12-14T13:53:58.974Z,99785.22
2022-12-14T13:56:47.036Z,99801.81
2022-12-14T13:59:33.006Z,99806.25
2022-12-14T14:02:35.164Z,99824.25
2022-12-14T14:05:23.137Z,99809.72
2022-12-14T14:08:41.472Z,99810.47
2022-12-14T14:11:42.478Z,99803.72
2022-12-14T14:14:46.097Z,99786.66
2022-12-14T14:17:42.135Z,99783.44
2022-12-14T14:20:47.077Z,99785.09
2022-12-14T14:23:33.071Z,99794.63
2022-12-14T14:26:35.123Z,99786.00
2022-12-14T14:29:45.039Z,99774.22
2022-12-14T14:32:49.056Z,99741.41
2022-12-14T14:35:52.085Z,99758.88
2022-12-14T14:38:52.086Z,99744.22
2022-12-14T14:41:47.161Z,99737.44
2022-12-14T14:44:49.064Z,99722.12
2022-12-14T14:47:51.082Z,99723.81
2022-12-14T14:50:55.079Z,99723.91
2022-12-14T14:53:55.093Z,99725.53
2022-12-14T14:56:56.050Z,99723.00
2022-12-14T14:59:58.044Z,99691.03
2022-12-14T15:02:59.113Z,99713.63
2022-12-14T15:05:59.095Z,99705.91
2022-12-14T15:09:03.079Z,99704.22
2022-12-14T15:12:08.076Z,99676.31
2022-12-14T15:15:11.035Z,99663.50
2022-12-14T15:18:39.063Z,99680.94
2022-12-14T15:21:39.063Z,99680.94
2022-12-14T15:24:32.077Z,99664.13
2022-12-14T15:27:38.067Z,99668.94
2022-12-14T15:30:42.069Z,99652.75
2022-12-14T15:33:48.036Z,99650.19
2022-12-14T15:36:49.074Z,99648.47
2022-12-14T15:39:52.068Z,99652.75
2022-12-14T15:43:02.056Z,99650.91
2022-12-14T15:46:07.071Z,99652.56
2022-12-14T15:49:17.043Z,99642.34
2022-12-14T15:52:17.065Z,99643.06
2022-12-14T15:55:17.077Z,99636.19
2022-12-14T15:58:31.079Z,99642.13
2022-12-14T16:01:57.849Z,99633.75
2022-12-14T16:05:01.144Z,99648.00
2022-12-14T16:08:08.069Z,99637.69
2022-12-14T16:11:09.055Z,99643.53
2022-12-14T16:14:09.022Z,99644.38
2022-12-14T16:17:09.166Z,99631.59
2022-12-14T16:20:14.031Z,99631.59
2022-12-14T16:23:29.600Z,99635.69
2022-12-14T16:26:36.072Z,99646.75
2022-12-14T16:29:43.624Z,99638.91
2022-12-14T16:32:50.347Z,99639.84
2022-12-14T16:35:51.043Z,99642.34
2022-12-14T16:39:12.052Z,99648.31
2022-12-14T16:42:19.071Z,99642.41
2022-12-14T16:45:19.036Z,99640.56
2022-12-14T16:48:30.103Z,99643.13
2022-12-14T16:52:04.977Z,99642.22
2022-12-14T16:54:53.040Z,99643.91
2022-12-14T16:58:08.016Z,99621.75
2022-12-14T17:01:16.219Z,99618.06
2022-12-14T17:04:18.116Z,99602.88
2022-12-14T17:07:18.036Z,99606.81
2022-12-14T17:10:19.062Z,99611.16
2022-12-14T17:13:19.043Z,99599.94
2022-12-14T17:16:21.120Z,99592.97
2022-12-14T17:19:23.831Z,99589.50
2022-12-14T17:22:42.058Z,99592.97
2022-12-14T17:25:46.303Z,99585.09
2022-12-14T17:28:49.030Z,99582.56
2022-12-14T17:31:50.202Z,99574.03
2022-12-14T17:34:52.016Z,99573.94
2022-12-14T17:37:52.065Z,99571.28
2022-12-14T17:40:52.078Z,99566.97
2022-12-14T17:43:56.782Z,99555.78
2022-12-14T17:46:59.028Z,99554.91
2022-12-14T17:49:59.063Z,99541.09
2022-12-14T17:52:59.078Z,99533.72
2022-12-14T17:55:59.068Z,99534.44
2022-12-14T17:58:52.007Z,99522.53
2022-12-14T18:01:39.140Z,99532.50
2022-12-14T18:04:39.063Z,99527.22
2022-12-14T18:07:39.040Z,99500.28
2022-12-14T18:10:39.020Z,99518.44
2022-12-14T18:13:39.050Z,99508.97
2022-12-14T18:16:39.076Z,99504.53
2022-12-14T18:19:39.032Z,99495.09
2022-12-14T18:22:39.028Z,99490.75
2022-12-14T18:25:39.039Z,99488.03
2022-12-14T18:28:39.023Z,99474.25
2022-12-14T18:31:50.138Z,99477.59
2022-12-14T18:34:50.010Z,99476.78
2022-12-14T18:37:50.040Z,99474.13
2022-12-14T18:40:50.222Z,99441.25
2022-12-14T18:43:50.030Z,99459.69
2022-12-14T18:46:50.101Z,99465.38
2022-12-14T18:49:50.005Z,99463.47
2022-12-14T18:52:50.032Z,99437.31
2022-12-14T18:55:50.183Z,99449.84
2022-12-14T18:58:52.069Z,99466.13
2022-12-14T19:01:53.182Z,99460.00
2022-12-14T19:04:53.065Z,99447.03
2022-12-14T19:07:54.003Z,99443.09
2022-12-14T19:10:57.076Z,99453.88
2022-12-14T19:13:57.040Z,99447.75
2022-12-14T19:16:57.057Z,99452.06
2022-12-14T19:19:57.065Z,99459.66
2022-12-14T19:22:58.009Z,99455.44
2022-12-14T19:25:58.020Z,99452.84
2022-12-14T19:28:58.047Z,99457.09
2022-12-14T19:31:54.244Z,99433.28
2022-12-14T19:34:41.049Z,99451.78
2022-12-14T19:37:42.030Z,99446.78
2022-12-14T19:40:42.017Z,99444.41
2022-12-14T19:43:43.031Z,99459.53
2022-12-14T19:46:43.075Z,99461.22
2022-12-14T19:49:43.042Z,99451.66
2022-12-14T19:52:43.062Z,99451.66
2022-12-14T19:55:43.042Z,99451.53
2022-12-14T19:58:43.073Z,99443.78
2022-12-14T20:01:47.976Z,99437.75
2022-12-14T20:04:49.053Z,99442.81
2022-12-14T20:07:49.016Z,99414.34
2022-12-14T20:10:50.032Z,99445.31
2022-12-14T20:13:55.001Z,99435.78
2022-12-14T20:16:59.064Z,99424.91
2022-12-14T20:19:59.016Z,99432.50
2022-12-14T20:22:59.055Z,99432.50
2022-12-14T20:25:59.040Z,99425.75
2022-12-14T20:29:12.054Z,99422.28
2022-12-14T20:32:12.016Z,99411.12
2022-12-14T20:35:12.998Z,99411.03
2022-12-14T20:38:13.010Z,99415.31
2022-12-14T20:41:21.043Z,99403.72
2022-12-14T20:44:23.047Z,99411.19
2022-12-14T20:47:23.039Z,99428.56
2022-12-14T20:50:23.043Z,99433.69
2022-12-14T20:53:23.045Z,99429.22
2022-12-14T20:56:23.021Z,99431.81
2022-12-14T20:59:24.017Z,99431.03
2022-12-14T21:02:32.105Z,99440.50
2022-12-14T21:05:32.042Z,99429.22
2022-12-14T21:08:25.095Z,99431.03
2022-12-14T21:11:43.010Z,99425.19
2022-12-14T21:14:46.065Z,99416.00
2022-12-14T21:17:48.044Z,99417.94
2022-12-14T21:20:49.191Z,99421.78
2022-12-14T21:23:49.079Z,99421.84
2022-12-14T21:26:49.173Z,99422.00
2022-12-14T21:29:49.015Z,99422.97
2022-12-14T21:32:49.982Z,99427.31
2022-12-14T21:35:54.051Z,99425.59
2022-12-14T21:38:54.055Z,99417.81
2022-12-14T21:42:12.052Z,99412.84
2022-12-14T21:45:12.036Z,99409.44
2022-12-14T21:48:12.045Z,99413.78
2022-12-14T21:51:11.997Z,99407.78
2022-12-14T21:54:12.050Z,99413.91
2022-12-14T21:57:30.042Z,99401.34
2022-12-14T22:00:30.028Z,99366.50
2022-12-14T22:03:30.489Z,99409.28
2022-12-14T22:06:29.995Z,99399.97
2022-12-14T22:09:30.993Z,99393.22
2022-12-14T22:12:31.041Z,99401.44
2022-12-14T22:15:31.014Z,99386.59
2022-12-14T22:18:31.025Z,99392.25
2022-12-14T22:21:31.025Z,99413.47
2022-12-14T22:24:31.052Z,99392.72
2022-12-14T22:27:31.050Z,99418.88
2022-12-14T22:30:31.952Z,99414.66
2022-12-14T22:33:32.321Z,99413.87
2022-12-14T22:36:32.022Z,99387.97
2022-12-14T22:39:33.051Z,99423.34
2022-12-14T22:42:33.035Z,99421.53
2022-12-14T22:45:33.161Z,99425.00
2022-12-14T22:48:33.059Z,99420.81
2022-12-14T22:51:36.027Z,99415.94
2022-12-14T22:54:41.012Z,99425.94
2022-12-14T22:57:41.050Z,99425.00
2022-12-14T23:00:41.040Z,99430.16
2022-12-14T23:03:41.099Z,99427.53
2022-12-14T23:06:41.044Z,99430.88
2022-12-14T23:09:59.002Z,99416.66
2022-12-14T23:13:17.013Z,99421.53
2022-12-14T23:16:36.078Z,99422.25
2022-12-14T23:19:54.001Z,99430.03
2022-12-14T23:23:12.013Z,99440.19
2022-12-14T23:26:33.990Z,99444.37
2022-12-14T23:29:51.993Z,99452.31
2022-12-14T23:33:10.043Z,99455.50
2022-12-14T23:36:28.018Z,99455.38
2022-12-14T23:39:46.038Z,99454.28
2022-12-14T23:43:04.987Z,99456.25
2022-12-14T23:46:23.137Z,99453.63
2022-12-14T23:49:41.015Z,99448.53
2022-12-14T23:52:51.993Z,99454.66
2022-12-14T23:55:49.805Z,99453.69
2022-12-14T23:58:54.016Z,99453.69
